Time;durP1;ratioP1;P1;durP2;ratioP2;P2;SDS_P1;SDS_P2;PMS_P1;PMS_P2;Temp;Humidity;BMP_temperature;BMP_pressure;BME280_temperature;BME280_humidity;BME280_pressure;Samples;Min_cycle;Max_cycle;Signal;HPM_P1;HPM_P2
2023/07/23 02:36:37;;;;;;;2.15;1.60;;;20.30;99.90;;;;;;7414265;19;20212;-77
2023/07/23 02:39:04;;;;;;;5.10;2.30;;;20.60;99.90;;;;;;7415325;19;20134;-77
2023/07/23 02:41:29;;;;;;;3.92;1.88;;;20.80;99.90;;;;;;7412832;19;20546;-77
2023/07/23 02:43:55;;;;;;;2.92;2.10;;;20.80;99.90;;;;;;7413929;19;20155;-77
2023/07/23 02:46:21;;;;;;;2.80;2.28;;;20.70;99.90;;;;;;7410234;19;20133;-77
2023/07/23 02:48:47;;;;;;;2.90;2.00;;;20.90;99.90;;;;;;7415720;19;20897;-76
2023/07/23 02:51:13;;;;;;;3.05;2.00;;;20.80;99.90;;;;;;7413249;19;20146;-77
2023/07/23 02:53:39;;;;;;;4.15;1.60;;;20.90;99.90;;;;;;7415676;19;20599;-77
2023/07/23 02:56:05;;;;;;;3.58;1.70;;;21.10;99.90;;;;;;7410710;19;20148;-77
2023/07/23 02:58:31;;;;;;;2.13;1.60;;;21.10;99.90;;;;;;7418138;19;20169;-77
2023/07/23 03:00:57;;;;;;;1.92;1.65;;;21.20;99.90;;;;;;7415065;19;20838;-77
2023/07/23 03:03:24;;;;;;;1.95;1.60;;;21.30;99.90;;;;;;7415247;19;20605;-76
2023/07/23 03:05:50;;;;;;;2.78;1.83;;;21.20;99.90;;;;;;7412888;19;20150;-76
2023/07/23 03:08:16;;;;;;;3.40;1.90;;;21.20;99.90;;;;;;7413667;19;20602;-76
2023/07/23 03:10:42;;;;;;;2.63;2.00;;;21.20;99.90;;;;;;7414740;19;20156;-76
2023/07/23 03:13:09;;;;;;;3.95;2.08;;;21.20;99.90;;;;;;7412693;19;20154;-76
2023/07/23 03:15:35;;;;;;;3.10;1.70;;;21.20;99.90;;;;;;7414732;19;20154;-76
2023/07/23 03:18:03;;;;;;;2.13;1.80;;;21.20;99.90;;;;;;7414244;19;20984;-76
2023/07/23 03:20:30;;;;;;;3.85;1.73;;;21.20;99.90;;;;;;7415485;19;21372;-77
2023/07/23 03:22:56;;;;;;;2.30;1.63;;;21.10;99.90;;;;;;7413340;19;20613;-77
2023/07/23 03:25:21;;;;;;;2.35;1.73;;;21.20;99.90;;;;;;7411153;19;20169;-76
2023/07/23 03:27:47;;;;;;;2.90;1.75;;;21.10;99.90;;;;;;7414315;19;20161;-77
2023/07/23 03:30:13;;;;;;;3.08;1.70;;;21.20;99.90;;;;;;7414083;19;20275;-77
2023/07/23 03:32:39;;;;;;;3.22;1.80;;;21.10;99.90;;;;;;7415343;19;20141;-77
2023/07/23 03:35:06;;;;;;;2.33;1.83;;;21.10;99.90;;;;;;7414228;19;20134;-76
2023/07/23 03:37:32;;;;;;;2.78;1.60;;;21.10;99.90;;;;;;7384884;19;20167;-76
2023/07/23 03:39:57;;;;;;;2.17;1.60;;;21.10;99.90;;;;;;7386098;19;20146;-77
2023/07/23 03:42:26;;;;;;;2.20;1.52;;;21.10;99.90;;;;;;7384267;19;20198;-76
2023/07/23 03:44:52;;;;;;;1.98;1.35;;;21.10;99.90;;;;;;7385190;19;20137;-76
2023/07/23 03:47:19;;;;;;;2.25;1.63;;;21.10;99.90;;;;;;7382678;19;20162;-77
2023/07/23 03:49:46;;;;;;;2.60;1.85;;;21.10;99.90;;;;;;7387940;19;20130;-76
2023/07/23 03:52:12;;;;;;;4.15;2.13;;;21.10;99.90;;;;;;7382666;19;21586;-77
2023/07/23 03:54:38;;;;;;;2.17;1.65;;;21.10;99.90;;;;;;7388313;19;20135;-77
2023/07/23 03:57:04;;;;;;;2.63;1.50;;;21.10;99.90;;;;;;7381770;19;20601;-77
2023/07/23 03:59:38;;;;;;;3.78;1.77;;;21.00;99.90;;;;;;7385802;19;20168;-76
2023/07/23 04:02:04;;;;;;;2.55;1.80;;;20.90;99.90;;;;;;7382697;19;20143;-77
2023/07/23 04:04:30;;;;;;;3.65;1.73;;;20.90;99.90;;;;;;7384296;19;20150;-77
2023/07/23 04:06:55;;;;;;;2.58;1.52;;;21.10;99.90;;;;;;7382262;19;20182;-77
2023/07/23 04:09:22;;;;;;;2.25;1.85;;;21.00;99.90;;;;;;7385025;19;20134;-76
2023/07/23 04:11:47;;;;;;;2.38;1.77;;;21.00;99.90;;;;;;7383902;19;20159;-76
2023/07/23 04:14:13;;;;;;;3.08;1.73;;;21.00;99.90;;;;;;7383243;19;20139;-77
2023/07/23 04:16:39;;;;;;;1.67;1.58;;;21.00;99.90;;;;;;7381022;19;20583;-76
2023/07/23 04:19:05;;;;;;;2.80;1.92;;;20.90;99.90;;;;;;7384665;19;20222;-76
2023/07/23 04:21:32;;;;;;;3.00;1.77;;;20.90;99.90;;;;;;7384164;19;20141;-76
2023/07/23 04:23:58;;;;;;;2.17;1.75;;;21.00;99.90;;;;;;7383841;19;20494;-76
2023/07/23 04:26:27;;;;;;;2.72;1.80;;;21.00;99.90;;;;;;7380459;19;20181;-76
2023/07/23 04:28:53;;;;;;;3.28;1.80;;;20.90;99.90;;;;;;7383560;19;20138;-77
2023/07/23 04:31:19;;;;;;;1.90;1.50;;;20.90;99.90;;;;;;7384643;19;20147;-76
2023/07/23 04:33:46;;;;;;;2.03;1.63;;;21.00;99.90;;;;;;7384659;19;20127;-76
2023/07/23 04:36:13;;;;;;;3.35;1.67;;;21.10;99.90;;;;;;7383117;19;21344;-77
2023/07/23 04:38:39;;;;;;;1.70;1.40;;;21.00;99.90;;;;;;7383145;19;20143;-78
2023/07/23 04:41:05;;;;;;;2.05;1.70;;;21.00;99.90;;;;;;7382971;19;20142;-77
2023/07/23 04:43:31;;;;;;;1.80;1.60;;;21.00;99.90;;;;;;7382665;19;20495;-77
2023/07/23 04:45:57;;;;;;;2.33;1.80;;;20.80;99.90;;;;;;7378906;19;20141;-76
2023/07/23 04:48:23;;;;;;;3.55;2.60;;;20.90;99.90;;;;;;7380674;19;20139;-77
2023/07/23 04:50:56;;;;;;;3.28;1.90;;;20.90;99.90;;;;;;7383721;19;20521;-77
2023/07/23 04:53:23;;;;;;;2.63;1.70;;;20.90;99.90;;;;;;7384133;19;20152;-77
2023/07/23 04:55:53;;;;;;;2.13;1.60;;;20.80;99.90;;;;;;7381208;19;20138;-77
2023/07/23 04:58:20;;;;;;;2.70;1.95;;;20.70;99.90;;;;;;7383136;19;20138;-76
2023/07/23 05:00:48;;;;;;;2.83;2.00;;;20.90;99.90;;;;;;7384930;19;20557;-76
2023/07/23 05:03:15;;;;;;;1.90;1.70;;;21.00;99.90;;;;;;7381965;19;20799;-77
2023/07/23 05:05:51;;;;;;;1.98;1.63;;;21.10;99.90;;;;;;7379627;19;20157;-77
2023/07/23 05:08:18;;;;;;;2.38;1.70;;;21.00;99.90;;;;;;7381994;19;20185;-77
2023/07/23 05:10:44;;;;;;;3.25;1.80;;;21.10;99.90;;;;;;7382882;19;20669;-77
2023/07/23 05:13:14;;;;;;;4.68;2.15;;;21.10;99.90;;;;;;7382399;19;20165;-77
2023/07/23 05:15:40;;;;;;;2.63;1.83;;;21.00;99.90;;;;;;7382758;19;20135;-76
2023/07/23 05:18:06;;;;;;;1.55;1.33;;;20.90;99.90;;;;;;7382776;19;20172;-76
2023/07/23 05:20:32;;;;;;;3.47;1.42;;;20.90;99.90;;;;;;7382838;19;20157;-77
2023/07/23 05:22:58;;;;;;;1.90;1.55;;;21.00;99.90;;;;;;7384464;19;20703;-76
2023/07/23 05:25:23;;;;;;;1.67;1.30;;;20.90;99.90;;;;;;7378341;19;20174;-76
2023/07/23 05:27:49;;;;;;;2.28;1.85;;;20.90;99.90;;;;;;7381674;19;20146;-77
2023/07/23 05:30:16;;;;;;;1.70;1.60;;;21.10;99.90;;;;;;7381104;19;20497;-76
2023/07/23 05:32:43;;;;;;;2.42;1.70;;;21.00;99.90;;;;;;7381605;19;20134;-76
2023/07/23 05:35:09;;;;;;;4.55;1.80;;;20.90;99.90;;;;;;7379766;19;20856;-76
2023/07/23 05:37:35;;;;;;;2.08;1.60;;;21.00;99.90;;;;;;7380475;19;20146;-77
2023/07/23 05:40:01;;;;;;;2.00;1.50;;;21.10;99.90;;;;;;7382851;19;20612;-76
2023/07/23 05:42:26;;;;;;;1.60;1.30;;;21.10;99.90;;;;;;7382992;19;20131;-76
2023/07/23 05:44:52;;;;;;;1.80;1.48;;;21.10;99.90;;;;;;7381471;19;20131;-76
2023/07/23 05:47:18;;;;;;;2.30;1.90;;;21.10;99.90;;;;;;7381753;19;20238;-75
2023/07/23 05:49:44;;;;;;;2.28;1.60;;;21.30;99.90;;;;;;7382137;19;20130;-76
2023/07/23 05:52:09;;;;;;;3.25;1.80;;;21.30;99.90;;;;;;7379317;19;20127;-77
2023/07/23 05:54:35;;;;;;;2.00;1.55;;;21.30;99.90;;;;;;7384281;19;20134;-76
2023/07/23 05:57:01;;;;;;;2.20;1.50;;;21.40;99.90;;;;;;7378869;19;20535;-76
2023/07/23 05:59:26;;;;;;;3.22;1.63;;;21.30;99.90;;;;;;7382085;19;20146;-77
2023/07/23 06:01:52;;;;;;;1.33;1.15;;;21.40;99.90;;;;;;7380549;19;20143;-76
2023/07/23 06:04:19;;;;;;;2.33;1.73;;;21.40;99.90;;;;;;7382943;19;20624;-76
2023/07/23 06:06:44;;;;;;;1.95;1.70;;;21.50;99.90;;;;;;7379874;19;20186;-76
2023/07/23 06:09:11;;;;;;;2.33;1.50;;;21.50;99.90;;;;;;7381280;19;20165;-77
2023/07/23 06:11:36;;;;;;;1.98;1.70;;;21.50;99.90;;;;;;7379038;19;20148;-76
2023/07/23 06:14:02;;;;;;;2.45;1.73;;;21.40;99.90;;;;;;7380822;19;20134;-76
2023/07/23 06:16:30;;;;;;;1.85;1.45;;;21.50;99.90;;;;;;7379285;19;20140;-76
2023/07/23 06:18:56;;;;;;;2.92;1.40;;;21.80;99.90;;;;;;7381537;19;20182;-77
2023/07/23 06:21:22;;;;;;;1.83;1.70;;;22.20;99.90;;;;;;7379390;19;20617;-76
2023/07/23 06:23:47;;;;;;;2.00;1.60;;;22.80;99.90;;;;;;7380781;19;20209;-78
2023/07/23 06:26:13;;;;;;;1.85;1.50;;;23.20;99.90;;;;;;7375579;19;20462;-76
2023/07/23 06:28:39;;;;;;;4.63;1.80;;;23.60;99.90;;;;;;7381832;19;20172;-77
2023/07/23 06:31:05;;;;;;;3.67;1.70;;;23.90;99.90;;;;;;7380593;19;20153;-76
2023/07/23 06:33:32;;;;;;;1.83;1.60;;;24.00;99.90;;;;;;7379827;19;20135;-77
2023/07/23 06:35:58;;;;;;;1.73;1.35;;;24.00;99.90;;;;;;7378423;19;20788;-76
2023/07/23 06:38:24;;;;;;;2.55;1.80;;;24.10;99.90;;;;;;7380841;19;20147;-77
2023/07/23 06:40:55;;;;;;;2.67;1.30;;;23.90;99.50;;;;;;7380061;19;20158;-78
2023/07/23 06:43:21;;;;;;;2.38;1.60;;;24.10;99.30;;;;;;7382373;19;20184;-75
2023/07/23 06:45:48;;;;;;;2.75;1.50;;;24.10;98.90;;;;;;7378018;19;20149;-77
2023/07/23 06:48:17;;;;;;;2.33;1.40;;;24.30;98.60;;;;;;7382304;19;20529;-77
2023/07/23 06:50:46;;;;;;;2.67;2.20;;;24.60;97.80;;;;;;7379153;19;20135;-77
2023/07/23 06:53:13;;;;;;;2.38;1.70;;;24.50;97.70;;;;;;7379966;19;20145;-77
2023/07/23 06:56:04;;;;;;;3.30;1.73;;;24.50;97.90;;;;;;7378167;19;20488;-76
2023/07/23 06:58:33;;;;;;;3.33;1.67;;;25.80;96.80;;;;;;7378635;19;20318;-76
2023/07/23 07:00:59;;;;;;;1.73;1.33;;;26.60;95.10;;;;;;7378867;19;20134;-77
2023/07/23 07:03:25;;;;;;;1.85;1.58;;;27.10;93.90;;;;;;7379511;19;20147;-77
2023/07/23 07:05:51;;;;;;;3.33;1.85;;;28.10;92.60;;;;;;7375503;19;20610;-77
2023/07/23 07:08:17;;;;;;;2.00;1.80;;;28.60;91.10;;;;;;7378692;19;20161;-77
2023/07/23 07:10:42;;;;;;;2.75;1.60;;;29.20;90.00;;;;;;7378494;19;20202;-76
2023/07/23 07:13:08;;;;;;;5.10;1.50;;;29.70;87.00;;;;;;7384689;19;20148;-77
2023/07/23 07:15:34;;;;;;;2.28;1.83;;;29.30;85.70;;;;;;7384974;19;20138;-77
2023/07/23 07:18:00;;;;;;;2.00;1.40;;;28.80;86.70;;;;;;7384665;19;20523;-77
2023/07/23 07:20:25;;;;;;;1.88;1.70;;;28.90;86.60;;;;;;7386442;19;20139;-77
2023/07/23 07:22:51;;;;;;;2.63;1.40;;;30.30;83.80;;;;;;7386185;19;20707;-76
2023/07/23 07:25:17;;;;;;;1.88;1.67;;;30.50;82.10;;;;;;7382454;19;20147;-77
2023/07/23 07:27:43;;;;;;;2.25;1.65;;;30.50;81.50;;;;;;7386189;19;20135;-77
2023/07/23 07:30:09;;;;;;;1.50;1.30;;;31.30;79.60;;;;;;7385446;19;20146;-76
2023/07/23 07:32:35;;;;;;;2.72;1.63;;;31.50;76.80;;;;;;7384686;19;20591;-77
2023/07/23 07:35:02;;;;;;;2.33;1.40;;;31.10;77.70;;;;;;7383251;19;20132;-76
2023/07/23 07:37:27;;;;;;;2.28;1.45;;;30.60;77.70;;;;;;7382666;19;20131;-77
2023/07/23 07:39:53;;;;;;;1.83;1.48;;;30.30;77.60;;;;;;7384532;19;20130;-76
2023/07/23 07:42:19;;;;;;;1.63;1.52;;;29.80;78.90;;;;;;7384709;19;20597;-76
2023/07/23 07:44:45;;;;;;;1.98;1.60;;;30.30;78.10;;;;;;7386333;19;21054;-77
2023/07/23 07:47:11;;;;;;;2.03;1.70;;;30.60;77.10;;;;;;7384041;19;20147;-76
2023/07/23 07:49:37;;;;;;;3.38;1.58;;;30.00;78.90;;;;;;7385614;19;20216;-76
2023/07/23 07:52:03;;;;;;;1.85;1.38;;;29.90;78.30;;;;;;7384499;19;20475;-78
2023/07/23 07:54:29;;;;;;;2.33;1.58;;;29.10;79.40;;;;;;7384866;19;20138;-76
2023/07/23 07:56:55;;;;;;;1.73;1.52;;;28.80;80.70;;;;;;7383352;19;20143;-77
2023/07/23 07:59:21;;;;;;;2.13;1.60;;;28.70;80.90;;;;;;7383433;19;20141;-77
2023/07/23 08:01:47;;;;;;;1.75;1.60;;;28.40;81.40;;;;;;7385237;19;20893;-77
2023/07/23 08:04:13;;;;;;;2.28;1.65;;;28.10;82.20;;;;;;7383205;19;20480;-77
2023/07/23 08:06:39;;;;;;;2.55;1.70;;;27.70;83.70;;;;;;7383038;19;20137;-76
2023/07/23 08:09:08;;;;;;;1.65;1.50;;;28.10;83.50;;;;;;7383663;19;20154;-77
2023/07/23 08:11:35;;;;;;;2.40;1.50;;;28.20;83.50;;;;;;7383966;19;20157;-77
2023/07/23 08:14:03;;;;;;;2.22;1.50;;;28.50;83.50;;;;;;7385081;19;20479;-77
2023/07/23 08:16:31;;;;;;;2.13;1.70;;;29.10;81.90;;;;;;7383115;19;20680;-78
2023/07/23 08:18:57;;;;;;;2.33;1.70;;;29.50;80.80;;;;;;7383728;19;20150;-77
2023/07/23 08:21:23;;;;;;;1.67;1.58;;;29.30;80.40;;;;;;7383667;19;20172;-78
2023/07/23 08:23:49;;;;;;;2.65;1.63;;;29.00;81.10;;;;;;7384708;19;20483;-77
2023/07/23 08:26:20;;;;;;;1.75;1.50;;;28.80;81.60;;;;;;7379840;19;20147;-77
2023/07/23 08:28:53;;;;;;;3.00;1.42;;;28.00;82.60;;;;;;7384290;19;20213;-78
2023/07/23 08:31:20;;;;;;;2.05;1.80;;;27.80;84.50;;;;;;7384352;19;20165;-77
2023/07/23 08:33:47;;;;;;;1.70;1.58;;;27.50;85.50;;;;;;7383884;19;20691;-77
2023/07/23 08:36:14;;;;;;;4.75;1.80;;;27.40;86.40;;;;;;7384384;19;20141;-78
2023/07/23 08:38:40;;;;;;;2.38;1.40;;;27.40;86.40;;;;;;7384147;19;20154;-77
2023/07/23 08:41:21;;;;;;;1.77;1.40;;;27.50;86.40;;;;;;7383299;19;20138;-77
2023/07/23 08:43:49;;;;;;;2.30;1.92;;;27.20;86.80;;;;;;7384783;19;20242;-78
2023/07/23 08:46:26;;;;;;;1.60;1.38;;;27.60;86.00;;;;;;7378972;19;20131;-76
2023/07/23 08:48:58;;;;;;;3.10;1.23;;;28.00;85.40;;;;;;7382081;19;20142;-77
2023/07/23 08:51:25;;;;;;;2.00;1.30;;;28.10;85.10;;;;;;7383497;19;20141;-77
2023/07/23 08:53:53;;;;;;;2.00;1.60;;;28.10;84.90;;;;;;7383371;19;20126;-78
2023/07/23 08:56:19;;;;;;;1.67;1.38;;;27.80;86.10;;;;;;7380788;19;20142;-77
2023/07/23 08:58:45;;;;;;;1.15;1.05;;;27.50;86.50;;;;;;7383041;19;20134;-77
2023/07/23 09:01:16;;;;;;;1.33;1.23;;;27.30;86.60;;;;;;7382160;19;20143;-77
2023/07/23 09:03:42;;;;;;;2.95;1.52;;;27.30;87.80;;;;;;7383774;19;20150;-77
2023/07/23 09:06:10;;;;;;;2.50;1.15;;;27.20;87.40;;;;;;7378996;19;20150;-77
2023/07/23 09:08:36;;;;;;;1.30;1.20;;;27.10;88.20;;;;;;7382780;19;20138;-78
2023/07/23 09:11:06;;;;;;;1.58;1.33;;;26.90;88.30;;;;;;7384748;19;20542;-77
2023/07/23 09:13:36;;;;;;;1.40;1.20;;;27.00;88.30;;;;;;7381941;19;20215;-77
2023/07/23 09:16:04;;;;;;;1.88;1.20;;;26.80;89.00;;;;;;7379979;19;20152;-77
2023/07/23 09:18:31;;;;;;;1.52;1.35;;;26.80;90.00;;;;;;7379914;19;20130;-77
2023/07/23 09:20:58;;;;;;;1.45;1.30;;;26.80;90.10;;;;;;7375470;19;20131;-77
2023/07/23 09:23:31;;;;;;;1.30;1.20;;;26.50;89.50;;;;;;7382175;19;20150;-78
2023/07/23 09:25:57;;;;;;;1.52;1.30;;;26.40;90.00;;;;;;7378243;19;20249;-77
2023/07/23 09:28:24;;;;;;;1.40;1.30;;;26.40;89.90;;;;;;7383074;19;20141;-77
2023/07/23 09:30:57;;;;;;;2.90;1.25;;;26.40;90.20;;;;;;7377088;19;20523;-78
2023/07/23 09:33:33;;;;;;;2.88;1.15;;;26.60;90.20;;;;;;7381848;19;20154;-78
2023/07/23 09:36:00;;;;;;;1.65;1.30;;;26.80;90.00;;;;;;7379451;19;20149;-79
2023/07/23 09:38:28;;;;;;;1.20;1.10;;;26.70;89.50;;;;;;7383390;19;20153;-78
2023/07/23 09:40:54;;;;;;;1.80;1.40;;;26.60;87.00;;;;;;7383224;19;20142;-77
2023/07/23 09:43:24;;;;;;;1.98;1.20;;;26.50;87.10;;;;;;7384701;19;20142;-78
2023/07/23 09:45:51;;;;;;;2.15;1.25;;;26.50;85.90;;;;;;7380663;19;20219;-78
2023/07/23 09:48:18;;;;;;;2.03;1.10;;;26.70;85.80;;;;;;7384459;19;20130;-78
2023/07/23 09:50:49;;;;;;;2.15;1.35;;;26.60;85.60;;;;;;7387992;19;20138;-78
2023/07/23 09:53:15;;;;;;;1.23;1.13;;;26.70;85.70;;;;;;7385031;19;20150;-78
2023/07/23 09:55:43;;;;;;;1.35;1.08;;;26.80;84.80;;;;;;7387486;19;20735;-78
2023/07/23 09:58:11;;;;;;;2.75;1.33;;;27.00;85.10;;;;;;7386540;19;20150;-79
2023/07/23 10:00:37;;;;;;;1.58;1.35;;;26.90;85.00;;;;;;7385896;19;20153;-77
2023/07/23 10:03:04;;;;;;;1.40;1.15;;;27.10;84.70;;;;;;7385492;19;20190;-77
2023/07/23 10:05:30;;;;;;;1.30;1.00;;;27.30;84.50;;;;;;7381793;19;20135;-77
2023/07/23 10:07:57;;;;;;;1.23;1.13;;;27.40;83.90;;;;;;7385599;19;20150;-78
2023/07/23 10:10:23;;;;;;;1.25;1.13;;;27.70;82.90;;;;;;7384987;19;20145;-77
2023/07/23 10:12:49;;;;;;;2.17;1.10;;;27.90;83.60;;;;;;7386486;19;20202;-76
2023/07/23 10:15:15;;;;;;;3.20;1.42;;;28.00;82.30;;;;;;7384117;19;20134;-78
2023/07/23 10:17:49;;;;;;;3.50;1.40;;;28.00;82.00;;;;;;7384645;19;20759;-78
2023/07/23 10:20:16;;;;;;;2.83;1.58;;;28.10;80.70;;;;;;7382933;19;20159;-79
2023/07/23 10:22:45;;;;;;;5.07;1.40;;;27.90;80.90;;;;;;7384850;19;20150;-78
2023/07/23 10:25:25;;;;;;;2.78;1.42;;;27.90;81.90;;;;;;7382420;19;20151;-80
2023/07/23 10:28:04;;;;;;;1.90;1.27;;;27.90;81.50;;;;;;7385357;19;20150;-79
2023/07/23 10:30:31;;;;;;;2.97;1.30;;;27.80;81.50;;;;;;7384934;19;20174;-79
2023/07/23 10:33:08;;;;;;;1.88;1.25;;;27.60;81.80;;;;;;7384340;19;20135;-78
2023/07/23 10:35:52;;;;;;;1.33;1.23;;;27.60;82.30;;;;;;7385863;19;20150;-79
2023/07/23 10:38:29;;;;;;;1.63;1.10;;;27.60;82.50;;;;;;7385435;19;20592;-79
2023/07/23 10:40:55;;;;;;;1.98;1.33;;;27.80;82.30;;;;;;7384330;19;20988;-77
2023/07/23 10:43:21;;;;;;;1.60;1.30;;;27.90;83.00;;;;;;7385151;19;20142;-79
2023/07/23 10:46:02;;;;;;;2.55;1.15;;;28.10;81.90;;;;;;7379800;19;20234;-79
2023/07/23 10:48:44;;;;;;;1.45;1.27;;;28.30;82.10;;;;;;7391252;19;20178;-79
2023/07/23 10:51:15;;;;;;;1.45;1.30;;;28.40;81.10;;;;;;7390062;19;20773;-79
2023/07/23 10:53:55;;;;;;;2.10;1.42;;;28.40;81.30;;;;;;7389969;19;20139;-79
2023/07/23 10:56:22;;;;;;;1.83;1.42;;;28.40;81.60;;;;;;7390263;19;20142;-78
2023/07/23 10:58:49;;;;;;;2.33;1.40;;;28.40;80.20;;;;;;7390375;19;20172;-78
2023/07/23 11:01:20;;;;;;;1.98;1.65;;;28.20;80.50;;;;;;7390511;19;20464;-79
2023/07/23 11:03:46;;;;;;;2.92;1.50;;;28.10;80.60;;;;;;7390941;19;20217;-78
2023/07/23 11:06:29;;;;;;;1.98;1.63;;;28.30;81.00;;;;;;7387128;19;20569;-78
2023/07/23 11:08:57;;;;;;;2.28;1.48;;;28.40;80.60;;;;;;7390610;19;20137;-78
2023/07/23 11:11:39;;;;;;;1.60;1.50;;;28.60;80.50;;;;;;7391313;19;20614;-79
2023/07/23 11:14:19;;;;;;;3.10;1.52;;;28.50;80.10;;;;;;7390581;19;20198;-78
2023/07/23 11:16:47;;;;;;;1.80;1.40;;;28.40;80.70;;;;;;7389684;19;20202;-78
2023/07/23 11:19:13;;;;;;;2.67;1.50;;;28.50;80.80;;;;;;7390435;19;20142;-78
2023/07/23 11:21:50;;;;;;;2.03;1.50;;;28.70;80.90;;;;;;7389126;19;20146;-78
2023/07/23 11:24:17;;;;;;;2.25;1.45;;;28.80;80.10;;;;;;7389031;19;20153;-78
2023/07/23 11:26:43;;;;;;;2.35;1.55;;;28.90;79.70;;;;;;7386043;19;20142;-78
2023/07/23 11:29:09;;;;;;;1.90;1.35;;;28.80;78.80;;;;;;7390404;19;20138;-80
2023/07/23 11:31:35;;;;;;;2.20;1.45;;;28.70;78.70;;;;;;7389447;19;20131;-79
2023/07/23 11:34:02;;;;;;;2.25;1.70;;;28.60;78.00;;;;;;7389201;19;20135;-79
2023/07/23 11:36:28;;;;;;;2.10;1.63;;;28.60;78.40;;;;;;7388497;19;20151;-81
2023/07/23 11:38:56;;;;;;;2.75;1.58;;;28.80;78.50;;;;;;7390412;19;20138;-80
2023/07/23 11:41:41;;;;;;;1.67;1.58;;;28.70;78.70;;;;;;7389270;19;20135;-79
2023/07/23 11:44:08;;;;;;;2.30;1.98;;;28.80;78.60;;;;;;7387572;19;20131;-80
2023/07/23 11:46:36;;;;;;;2.67;1.90;;;28.80;78.90;;;;;;7388144;19;20226;-72
2023/07/23 11:49:07;;;;;;;1.77;1.50;;;28.90;75.90;;;;;;7387343;19;20139;-74
2023/07/23 11:51:33;;;;;;;1.70;1.60;;;28.90;74.40;;;;;;7388552;19;20156;-72
2023/07/23 11:54:02;;;;;;;2.95;2.03;;;28.90;72.90;;;;;;7387718;19;20255;-72
2023/07/23 11:56:30;;;;;;;2.17;1.80;;;29.00;72.30;;;;;;7387541;19;20154;-73
2023/07/23 11:59:02;;;;;;;2.65;1.45;;;28.90;73.00;;;;;;7387186;19;20612;-73
2023/07/23 12:01:28;;;;;;;1.85;1.70;;;28.80;74.40;;;;;;7389315;19;20141;-73
2023/07/23 12:03:53;;;;;;;1.90;1.63;;;28.70;74.10;;;;;;7388142;19;20145;-71
2023/07/23 12:06:19;;;;;;;1.60;1.40;;;28.40;73.10;;;;;;7386554;19;20142;-73
2023/07/23 12:08:46;;;;;;;3.10;1.63;;;28.30;73.20;;;;;;7388775;19;20134;-74
2023/07/23 12:11:14;;;;;;;2.35;1.88;;;28.40;73.70;;;;;;7388638;19;20970;-73
2023/07/23 12:13:52;;;;;;;2.28;1.60;;;28.50;73.10;;;;;;7389007;19;20206;-72
2023/07/23 12:16:32;;;;;;;2.42;1.50;;;28.50;73.20;;;;;;7385249;19;20150;-73
2023/07/23 12:19:12;;;;;;;2.72;1.58;;;28.60;73.50;;;;;;7389439;19;20172;-73
2023/07/23 12:21:43;;;;;;;2.28;1.73;;;28.50;72.60;;;;;;7389797;19;20217;-71
2023/07/23 12:24:29;;;;;;;3.35;2.15;;;28.40;72.80;;;;;;7387358;19;20150;-73
2023/07/23 12:26:57;;;;;;;2.85;1.75;;;28.50;73.10;;;;;;7383991;19;20217;-73
2023/07/23 12:29:24;;;;;;;2.80;1.88;;;28.40;73.20;;;;;;7387199;19;20656;-73
2023/07/23 12:32:11;;;;;;;1.95;1.60;;;28.20;73.40;;;;;;7390074;19;20634;-72
2023/07/23 12:34:39;;;;;;;2.20;2.00;;;28.10;73.50;;;;;;7387135;19;20210;-73
2023/07/23 12:37:05;;;;;;;2.00;1.80;;;28.00;73.70;;;;;;7387714;19;20135;-74
2023/07/23 12:39:31;;;;;;;1.70;1.58;;;27.80;74.50;;;;;;7387300;19;20150;-73
2023/07/23 12:41:56;;;;;;;2.08;1.60;;;27.70;75.50;;;;;;7388785;19;20161;-72
2023/07/23 12:44:22;;;;;;;2.15;1.83;;;27.60;76.10;;;;;;7386120;19;20142;-72
2023/07/23 12:46:48;;;;;;;1.60;1.50;;;27.40;76.40;;;;;;7386584;19;20194;-72
2023/07/23 12:49:14;;;;;;;1.90;1.67;;;27.40;76.90;;;;;;7387246;19;20146;-73
2023/07/23 12:51:40;;;;;;;3.15;2.08;;;27.40;77.50;;;;;;7387557;19;20264;-73
2023/07/23 12:54:06;;;;;;;2.72;1.80;;;27.50;77.70;;;;;;7385454;19;20855;-72
2023/07/23 12:56:32;;;;;;;2.35;1.73;;;27.40;78.40;;;;;;7385610;19;20138;-73
2023/07/23 12:58:58;;;;;;;2.00;1.80;;;27.20;78.80;;;;;;7388135;19;20141;-73
2023/07/23 13:01:24;;;;;;;2.55;2.20;;;27.30;79.40;;;;;;7386627;19;20134;-73
2023/07/23 13:03:50;;;;;;;1.98;1.77;;;27.30;79.60;;;;;;7388689;19;20481;-73
2023/07/23 13:06:18;;;;;;;2.20;1.90;;;27.30;80.00;;;;;;7383699;19;20138;-73
2023/07/23 13:08:44;;;;;;;1.70;1.45;;;27.40;80.20;;;;;;7385281;19;20162;-72
2023/07/23 13:11:10;;;;;;;1.85;1.48;;;27.40;80.50;;;;;;7388219;19;20163;-73
2023/07/23 13:13:36;;;;;;;2.13;1.63;;;27.40;80.90;;;;;;7387930;19;20593;-73
2023/07/23 13:16:02;;;;;;;2.65;1.63;;;27.40;81.10;;;;;;7386578;19;20150;-72
2023/07/23 13:18:28;;;;;;;3.92;2.53;;;27.40;80.80;;;;;;7388220;19;20594;-72
2023/07/23 13:20:54;;;;;;;1.90;1.48;;;27.50;80.40;;;;;;7387279;19;20154;-74
2023/07/23 13:23:19;;;;;;;2.67;1.70;;;27.40;80.10;;;;;;7388216;19;20134;-72
2023/07/23 13:25:45;;;;;;;1.95;1.70;;;27.30;80.60;;;;;;7382771;19;20167;-73
2023/07/23 13:28:14;;;;;;;2.33;1.70;;;27.20;81.20;;;;;;7388081;19;20154;-73
2023/07/23 13:30:40;;;;;;;2.78;1.77;;;27.20;81.30;;;;;;7386057;19;20168;-73
2023/07/23 13:33:06;;;;;;;2.40;2.17;;;27.30;80.80;;;;;;7386893;19;20571;-73
2023/07/23 13:35:32;;;;;;;2.92;2.03;;;27.20;81.00;;;;;;7385799;19;20191;-72
2023/07/23 13:37:58;;;;;;;2.67;1.90;;;27.20;79.20;;;;;;7389085;19;20127;-72
2023/07/23 13:40:23;;;;;;;2.50;2.17;;;27.20;78.80;;;;;;7386641;19;20360;-72
2023/07/23 13:42:49;;;;;;;2.80;1.88;;;27.30;78.10;;;;;;7388184;19;20143;-73
2023/07/23 13:45:15;;;;;;;2.00;1.80;;;27.30;78.80;;;;;;7383765;19;20563;-73
2023/07/23 13:47:41;;;;;;;3.42;2.40;;;27.30;78.40;;;;;;7386748;19;20134;-72
2023/07/23 13:50:07;;;;;;;3.40;2.15;;;27.40;77.90;;;;;;7386533;19;20600;-74
2023/07/23 13:52:33;;;;;;;2.65;2.10;;;27.50;77.40;;;;;;7384368;19;20147;-73
2023/07/23 13:55:00;;;;;;;3.00;2.22;;;27.50;76.50;;;;;;7387961;19;20597;-73
2023/07/23 13:57:26;;;;;;;2.63;2.28;;;27.50;76.60;;;;;;7385440;19;20157;-73
2023/07/23 13:59:52;;;;;;;3.50;2.30;;;27.60;76.20;;;;;;7386600;19;20138;-73
2023/07/23 14:02:18;;;;;;;4.68;2.20;;;27.50;75.80;;;;;;7384757;19;20130;-73
2023/07/23 14:04:44;;;;;;;3.08;2.30;;;27.70;76.40;;;;;;7385269;19;20131;-74
2023/07/23 14:07:10;;;;;;;3.40;2.42;;;27.60;75.70;;;;;;7384274;19;20500;-72
2023/07/23 14:09:36;;;;;;;2.83;2.22;;;27.70;76.00;;;;;;7386578;19;20142;-73
2023/07/23 14:12:02;;;;;;;3.40;2.63;;;27.60;73.80;;;;;;7385938;19;20237;-74
2023/07/23 14:14:28;;;;;;;5.38;2.70;;;27.50;73.50;;;;;;7385476;19;20154;-73
2023/07/23 14:16:54;;;;;;;3.55;2.33;;;27.50;72.40;;;;;;7385442;19;20688;-74
2023/07/23 14:19:19;;;;;;;3.72;2.85;;;27.60;69.70;;;;;;7385601;19;20451;-72
2023/07/23 14:21:45;;;;;;;6.05;2.90;;;27.50;69.40;;;;;;7384142;19;20146;-74
2023/07/23 14:24:11;;;;;;;3.13;2.50;;;27.60;68.90;;;;;;7384667;19;20134;-72
2023/07/23 14:26:39;;;;;;;5.47;2.80;;;27.50;67.40;;;;;;7380208;19;20147;-73
2023/07/23 14:29:05;;;;;;;3.28;2.45;;;27.50;66.30;;;;;;7384388;19;20134;-73
2023/07/23 14:31:31;;;;;;;2.72;2.03;;;27.60;65.50;;;;;;7384492;19;20137;-73
2023/07/23 14:33:57;;;;;;;2.83;2.25;;;27.50;66.30;;;;;;7383021;19;20139;-72
2023/07/23 14:36:22;;;;;;;4.03;2.42;;;27.40;66.80;;;;;;7383948;19;20147;-74
2023/07/23 14:38:48;;;;;;;3.72;2.60;;;27.30;67.80;;;;;;7384504;19;20135;-72
2023/07/23 14:41:14;;;;;;;3.40;2.50;;;27.40;68.10;;;;;;7385357;19;20150;-72
2023/07/23 14:43:40;;;;;;;4.45;2.58;;;27.30;69.20;;;;;;7384646;19;20175;-73
2023/07/23 14:46:05;;;;;;;3.67;2.60;;;27.30;69.80;;;;;;7379611;19;20161;-73
2023/07/23 14:48:31;;;;;;;3.45;2.92;;;27.20;70.10;;;;;;7386258;19;20612;-74
2023/07/23 14:50:57;;;;;;;2.88;2.33;;;27.30;70.50;;;;;;7382099;19;20242;-73
2023/07/23 14:53:23;;;;;;;3.55;2.42;;;27.20;71.50;;;;;;7385603;19;20149;-74
2023/07/23 14:55:49;;;;;;;3.30;2.70;;;27.30;72.00;;;;;;7383085;19;20138;-74
2023/07/23 14:58:14;;;;;;;3.25;2.50;;;27.30;73.00;;;;;;7383824;19;20142;-73
2023/07/23 15:00:44;;;;;;;4.30;3.05;;;27.20;73.80;;;;;;7382995;19;20727;-73
2023/07/23 15:03:13;;;;;;;3.92;2.80;;;27.10;72.50;;;;;;7383989;19;20141;-74
2023/07/23 15:05:40;;;;;;;3.50;2.80;;;27.10;73.20;;;;;;7381051;19;20133;-72
2023/07/23 15:08:07;;;;;;;3.00;2.63;;;26.90;72.00;;;;;;7383819;19;20142;-73
2023/07/23 15:10:33;;;;;;;5.00;2.58;;;26.90;71.60;;;;;;7382604;19;20592;-73
2023/07/23 15:13:01;;;;;;;4.47;3.45;;;26.80;71.60;;;;;;7383242;19;20146;-73
2023/07/23 15:15:27;;;;;;;4.47;2.90;;;26.80;71.00;;;;;;7379892;19;20148;-74
2023/07/23 15:17:53;;;;;;;3.97;2.92;;;26.70;70.60;;;;;;7383501;19;20138;-73
2023/07/23 15:20:19;;;;;;;5.40;2.90;;;26.70;70.80;;;;;;7383164;19;20513;-74
2023/07/23 15:22:47;;;;;;;4.32;2.72;;;26.70;71.50;;;;;;7383597;19;20241;-73
2023/07/23 15:25:14;;;;;;;3.20;2.53;;;26.60;71.30;;;;;;7381045;19;20171;-73